Danevang, Texas
Current Conditions -  °F | °C
As of 9:55 PM on Wednesday 22 Oct 2014 (Local Time) from KARM Reporting Station
Clear Clear  
Wind Chill: 65°   Ceiling: Unl
Heat Index: 65°   Visibility: 10mi
Dew Point: 59°   Wind: 5mph
Humidity: 82%   Direction: 80°E
Pressure: 30.09"   Gusts: NA
Location:  29.06°N, 96.21°W
Report Text: KARM 230255Z AUTO 08004KT 10SM CLR 18/15 A3009 RMK AO2 T01820151
Loading
Personal Weather Stations






























Interactive Weather Map
Tropical Storm Tracking
New forecast layout! Learn more

10-Day Weather Forecast

Advertisements
Track Severe Weather on mobile